Watkins, Iowa
Current Conditions -  °F | °C
As of 9:52 AM on Thursday 29 Jan 2015 (Local Time) from KCID Reporting Station
Overcast Overcast  
Wind Chill: -5°   Ceiling: 900
Heat Index:   Visibility: 7mi
Dew Point:   Wind: 18mph
Humidity: 92%   Direction: 310°NW
Pressure: 30.07"   Gusts: NA
Location:  41.89°N, 91.99°W
Report Text: KCID 291552Z 31016KT 7SM BKN009 OVC014 01/00 A3007 RMK AO2 RAB21E28UPB36E37DZB37E48SNB28E36 CIG 006V012 SLP193 P0000 T00110000
Loading
Personal Weather Stations






























Interactive Weather Map New forecast layout! Learn more

10-Day Weather Forecast

Advertisements
Track Severe Weather on mobile